Weather at Custer Airport

Public forecast

Using degrees Fahrenheit for public forecast. Weather courtesy of forecast.io.

Current aviation weather report (METAR) for Custer Airport

Retrieved 2021/02/28 17:35 UTC (6 minutes ago):

KTTF 281735Z AUTO 20004KT 7SM CLR 09/08 A2978 RMK AO2 T00920082

Closest aviation forecast (TAF) to Custer Airport

Forecast is more than 6 hours old.

Closest forecast is Detroit Metropolitan Wayne County Airport, 16.8 nm (31.0 km) NNE. Retrieved 2021/02/28 06:24 UTC (11 hours ago):

TAF KDTW 280523Z 2806/0112 16005KT 4SM BR BKN250 TEMPO 2808/2811 2SM BR SCT250 FM281300 16008KT 4SM -SHRA BR OVC007 FM281600 18010KT 4SM BR OVC004 FM282000 21013KT 6SM BR OVC007 FM010100 25013G20KT P6SM BKN015 OVC025